CST,Max TemperatureF,Mean TemperatureF,Min TemperatureF,Max Dew PointF,MeanDew PointF,Min DewpointF,Max Humidity, Mean Humidity, Min Humidity, Max Sea Level PressureIn, Mean Sea Level PressureIn, Min Sea Level PressureIn, Max VisibilityMiles, Mean VisibilityMiles, Min VisibilityMiles, Max Wind SpeedMPH, Mean Wind SpeedMPH, Max Gust SpeedMPH,PrecipitationIn, CloudCover, Events, WindDirDegrees
2012-11-1,63,46,29,39,30,20,93,62,21,30.08,30.01,29.98,10,10,10,8,1,,0.00,0,,315
2012-11-2,75,58,40,51,43,37,92,65,35,30.06,30.01,29.98,10,10,10,12,3,17,0.00,0,,253
2012-11-3,80,62,43,57,49,42,95,66,36,30.12,30.06,30.00,10,10,10,10,3,,0.01,1,Rain,228
2012-11-4,60,49,38,57,46,36,99,79,48,30.13,30.09,30.03,10,9,5,9,3,,0.01,2,Rain,344
2012-11-5,58,45,32,45,37,32,99,75,41,30.13,30.06,29.99,10,8,1,8,1,,0.32,2,Rain,58
2012-11-6,48,45,42,46,44,42,98,94,86,30.05,29.99,29.96,10,7,3,6,2,,0.09,7,Rain,352
2012-11-7,53,46,39,44,41,39,99,89,60,30.14,30.02,29.94,10,8,2,10,4,17,0.18,4,Rain,322
2012-11-8,55,44,33,42,39,33,100,87,54,30.26,30.21,30.14,10,6,0,8,2,,0.00,3,Fog,340
2012-11-9,64,48,31,44,38,31,99,75,35,30.33,30.25,30.21,10,8,3,8,1,,0.00,0,,186
2012-11-10,68,53,38,47,42,36,93,56,40,30.35,30.29,30.24,10,10,7,12,5,16,0.00,0,,165
2012-11-11,69,58,48,50,45,37,68,59,41,30.33,30.25,30.18,10,10,10,16,8,24,0.00,0,,143
2012-11-12,61,48,36,58,46,30,97,84,68,30.41,30.28,30.15,10,8,1,14,8,23,1.23,4,Rain-Thunderstorm,319
2012-11-13,50,40,30,32,27,24,90,64,38,30.46,30.39,30.33,10,10,10,16,6,26,0.00,0,,1
2012-11-14,54,42,30,42,34,28,94,73,49,30.37,30.32,30.27,10,10,7,12,2,18,0.00,2,,60
2012-11-15,58,44,30,39,35,30,100,76,41,30.33,30.29,30.25,10,9,3,7,1,,0.00,0,,340
2012-11-16,59,45,31,36,31,29,95,66,33,30.36,30.32,30.28,10,10,10,7,1,,0.00,0,,360
2012-11-17,61,46,30,35,32,29,96,68,29,30.45,30.39,30.35,10,10,7,12,2,17,0.00,0,,61
2012-11-18,62,48,34,40,35,26,94,63,40,30.43,30.37,30.32,10,10,10,9,3,,0.00,0,,80
2012-11-19,65,50,36,44,39,33,95,74,44,30.34,30.28,30.21,10,10,10,7,1,,0.00,0,,107
2012-11-20,67,52,37,45,42,37,98,71,40,30.23,30.16,30.11,10,10,7,7,1,,0.00,1,,339
2012-11-21,67,54,40,48,45,40,99,78,48,30.22,30.18,30.13,10,9,2,7,1,,0.00,1,,354
2012-11-22,68,52,36,48,42,36,99,74,35,30.27,30.21,30.18,10,7,1,7,1,,0.00,0,,187
2012-11-23,60,50,40,50,42,31,96,74,54,30.22,30.19,30.15,10,10,5,8,3,,0.00,2,Rain,289
2012-11-24,44,35,25,31,23,20,92,65,39,30.30,30.22,30.16,10,10,10,13,6,18,0.00,0,,348
2012-11-25,55,39,23,28,24,21,94,59,27,30.20,30.14,30.08,10,10,10,9,2,,0.00,0,,188
2012-11-26,61,46,32,50,38,26,85,67,51,30.20,30.14,30.11,10,10,10,12,3,,0.01,3,Rain,184
2012-11-27,57,47,36,53,42,32,99,89,79,30.33,30.22,30.10,10,7,2,13,7,20,0.06,8,Rain,355
2012-11-28,51,40,29,32,30,26,94,75,38,30.46,30.39,30.33,10,9,4,9,4,,0.00,2,,1
2012-11-29,59,42,26,32,28,24,96,65,26,30.44,30.36,30.31,10,10,7,8,2,,0.00,0,,153
2012-11-30,63,50,37,45,41,32,99,77,50,30.37,30.30,30.25,10,9,2,13,3,25,0.00,2,,186